createdAt,value
2022-10-09T00:02:55.106Z,99.20
2022-10-09T00:06:56.761Z,99.10
2022-10-09T00:10:58.435Z,98.90
2022-10-09T00:15:00.162Z,99.10
2022-10-09T00:19:02.006Z,99.50
2022-10-09T00:23:04.231Z,98.90
2022-10-09T00:27:06.248Z,98.70
2022-10-09T00:31:09.945Z,98.40
2022-10-09T00:35:11.671Z,98.80
2022-10-09T00:39:13.590Z,98.70
2022-10-09T00:43:37.160Z,98.50
2022-10-09T00:47:44.950Z,98.50
2022-10-09T00:51:50.055Z,98.50
2022-10-09T00:55:52.652Z,98.70
2022-10-09T00:59:54.339Z,99.20
2022-10-09T01:03:55.961Z,98.60
2022-10-09T01:08:14.807Z,98.40
2022-10-09T01:12:35.138Z,98.50
2022-10-09T01:16:43.803Z,98.90
2022-10-09T01:20:48.192Z,98.80
2022-10-09T01:25:22.134Z,98.50
2022-10-09T01:29:26.560Z,98.30
2022-10-09T01:33:31.066Z,98.60
2022-10-09T01:37:35.212Z,98.60
2022-10-09T01:41:37.543Z,98.50
2022-10-09T01:45:43.125Z,98.60
2022-10-09T01:49:59.401Z,98.30
2022-10-09T01:54:07.041Z,98.20
2022-10-09T01:58:30.395Z,98.40
2022-10-09T02:02:32.441Z,98.40
2022-10-09T02:06:35.935Z,98.40
2022-10-09T02:10:38.950Z,98.30
2022-10-09T02:14:40.667Z,98.10
2022-10-09T02:18:49.831Z,98.10
2022-10-09T02:22:53.366Z,98.20
2022-10-09T02:26:57.442Z,98.10
2022-10-09T02:31:11.350Z,98.30
2022-10-09T02:35:13.085Z,98.40
2022-10-09T02:39:14.841Z,98.70
2022-10-09T02:43:16.491Z,98.90
2022-10-09T02:47:18.570Z,98.50
2022-10-09T02:51:20.546Z,98.30
2022-10-09T02:55:22.223Z,98.30
2022-10-09T02:59:23.864Z,97.80
2022-10-09T03:03:25.782Z,97.70
2022-10-09T03:07:27.436Z,97.80
2022-10-09T03:11:29.100Z,97.80
2022-10-09T03:15:34.588Z,97.70
2022-10-09T03:19:36.254Z,97.70
2022-10-09T03:23:38.484Z,98.30
2022-10-09T03:27:40.270Z,98.40
2022-10-09T03:31:57.408Z,97.90
2022-10-09T03:35:59.148Z,97.70
2022-10-09T03:40:00.846Z,98.00
2022-10-09T03:44:02.535Z,98.40
2022-10-09T03:48:05.752Z,98.40
2022-10-09T03:52:07.563Z,98.00
2022-10-09T03:56:09.237Z,97.70
2022-10-09T04:00:11.692Z,97.60
2022-10-09T04:04:13.389Z,97.90
2022-10-09T04:08:17.874Z,98.00
2022-10-09T04:12:19.915Z,98.50
2022-10-09T04:16:21.616Z,98.20
2022-10-09T04:20:23.392Z,98.40
2022-10-09T04:24:25.111Z,98.40
2022-10-09T04:28:28.648Z,98.30
2022-10-09T04:32:30.377Z,97.90
2022-10-09T04:36:32.045Z,98.00
2022-10-09T04:40:33.737Z,97.90
2022-10-09T04:44:35.392Z,98.10
2022-10-09T04:48:46.227Z,98.00
2022-10-09T04:52:48.191Z,97.80
2022-10-09T04:56:49.973Z,97.60
2022-10-09T05:00:51.727Z,97.60
2022-10-09T05:04:53.385Z,97.60
2022-10-09T05:08:55.673Z,97.70
2022-10-09T05:12:57.327Z,97.60
2022-10-09T05:17:13.478Z,97.40
2022-10-09T05:22:13.600Z,97.40
2022-10-09T05:26:19.142Z,97.40
2022-10-09T05:30:20.779Z,97.20
2022-10-09T05:34:22.572Z,97.10
2022-10-09T05:38:25.352Z,97.10
2022-10-09T05:42:27.060Z,98.10
2022-10-09T05:46:30.222Z,97.80
2022-10-09T05:50:31.906Z,97.40
2022-10-09T05:54:33.552Z,97.20
2022-10-09T05:58:35.194Z,97.30
2022-10-09T06:02:36.882Z,97.10
2022-10-09T06:06:39.817Z,97.70
2022-10-09T06:10:41.454Z,97.70
2022-10-09T06:14:43.125Z,97.60
2022-10-09T06:18:49.406Z,97.60
2022-10-09T06:22:51.764Z,98.30
2022-10-09T06:26:53.590Z,97.70
2022-10-09T06:31:07.113Z,97.60
2022-10-09T06:35:09.244Z,97.90
2022-10-09T06:39:12.168Z,98.30
2022-10-09T06:43:13.776Z,98.10
2022-10-09T06:47:16.076Z,98.10
2022-10-09T06:51:20.638Z,98.00
2022-10-09T06:55:26.401Z,98.40
2022-10-09T06:59:31.164Z,98.30
2022-10-09T07:03:35.855Z,97.80
2022-10-09T07:07:41.622Z,97.80
2022-10-09T07:11:46.253Z,97.90
2022-10-09T07:15:48.088Z,97.80
2022-10-09T07:19:49.790Z,98.10
2022-10-09T07:23:51.490Z,98.50
2022-10-09T07:27:53.211Z,98.70
2022-10-09T07:31:54.901Z,99.20
2022-10-09T07:36:01.849Z,98.90
2022-10-09T07:40:04.014Z,98.90
2022-10-09T07:44:05.837Z,99.00
2022-10-09T07:48:08.156Z,98.90
2022-10-09T07:52:10.061Z,98.80
2022-10-09T07:56:20.654Z,99.00
2022-10-09T08:00:22.848Z,99.20
2022-10-09T08:04:24.706Z,99.30
2022-10-09T08:08:28.447Z,99.60
2022-10-09T08:12:30.465Z,99.90
2022-10-09T08:16:32.713Z,99.90
2022-10-09T08:20:34.926Z,99.90
2022-10-09T08:24:36.851Z,99.90
2022-10-09T08:28:40.085Z,99.90
2022-10-09T08:32:42.154Z,99.70
2022-10-09T08:36:44.582Z,99.80
2022-10-09T08:40:58.157Z,99.90
2022-10-09T08:45:00.169Z,99.90
2022-10-09T08:49:04.046Z,99.90
2022-10-09T08:53:08.343Z,99.90
2022-10-09T08:57:15.756Z,99.90
2022-10-09T09:01:39.608Z,99.90
2022-10-09T09:05:51.051Z,99.90
2022-10-09T09:10:01.266Z,99.90
2022-10-09T09:14:27.640Z,99.90
2022-10-09T09:19:07.653Z,99.90
2022-10-09T09:23:15.539Z,99.90
2022-10-09T09:27:20.736Z,99.90
2022-10-09T09:31:30.436Z,99.90
2022-10-09T09:35:46.723Z,99.90
2022-10-09T09:40:34.802Z,99.90
2022-10-09T09:44:13.076Z,99.90
2022-10-09T09:48:33.302Z,99.90
2022-10-09T09:52:39.174Z,99.90
2022-10-09T09:57:10.527Z,99.90
2022-10-09T10:01:06.923Z,99.90
2022-10-09T10:05:27.307Z,99.90
2022-10-09T10:09:28.979Z,99.90
2022-10-09T10:13:39.253Z,99.90
2022-10-09T10:17:40.919Z,99.90
2022-10-09T10:21:59.525Z,99.90
2022-10-09T10:26:12.513Z,99.90
2022-10-09T10:30:17.332Z,99.90
2022-10-09T10:34:29.701Z,99.90
2022-10-09T10:38:50.202Z,99.90
2022-10-09T10:43:04.018Z,99.90
2022-10-09T10:47:16.210Z,99.90
2022-10-09T10:51:55.383Z,99.90
2022-10-09T10:56:07.522Z,99.90
2022-10-09T11:00:13.994Z,99.90
2022-10-09T11:04:34.902Z,99.90
2022-10-09T11:08:48.698Z,99.90
2022-10-09T11:13:01.002Z,99.90
2022-10-09T11:17:13.981Z,99.90
2022-10-09T11:22:10.038Z,99.90
2022-10-09T11:26:31.911Z,99.90
2022-10-09T11:30:42.916Z,99.90
2022-10-09T11:34:58.493Z,99.90
2022-10-09T11:39:05.286Z,99.90
2022-10-09T11:43:36.328Z,99.90
2022-10-09T11:47:58.270Z,99.90
2022-10-09T11:52:18.099Z,99.90
2022-10-09T11:56:25.966Z,99.90
2022-10-09T12:00:33.722Z,99.90
2022-10-09T12:04:53.976Z,99.90
2022-10-09T12:09:00.862Z,99.90
2022-10-09T12:13:05.693Z,99.90
2022-10-09T12:17:22.636Z,99.90
2022-10-09T12:21:46.308Z,99.60
2022-10-09T12:25:48.717Z,99.60
2022-10-09T12:30:14.225Z,99.70
2022-10-09T12:34:38.839Z,99.90
2022-10-09T12:38:41.293Z,99.90
2022-10-09T12:42:45.031Z,99.60
2022-10-09T12:46:46.791Z,99.30
2022-10-09T12:50:49.223Z,99.70
2022-10-09T12:54:50.929Z,99.30
2022-10-09T12:58:53.257Z,99.00
2022-10-09T13:02:55.565Z,99.70
2022-10-09T13:06:59.554Z,99.30
2022-10-09T13:11:25.397Z,99.40
2022-10-09T13:15:32.148Z,99.20
2022-10-09T13:19:35.851Z,99.50
2022-10-09T13:23:37.821Z,99.70
2022-10-09T13:27:39.901Z,99.20
2022-10-09T13:31:44.588Z,99.10
2022-10-09T13:35:46.377Z,99.40
2022-10-09T13:39:48.071Z,99.80
2022-10-09T13:43:52.180Z,99.20
2022-10-09T13:47:54.069Z,99.00
2022-10-09T13:51:55.784Z,99.50
2022-10-09T13:56:00.840Z,99.00
2022-10-09T14:00:04.178Z,99.00
2022-10-09T14:04:05.868Z,99.40
2022-10-09T14:08:09.506Z,99.90
2022-10-09T14:12:11.286Z,99.70
2022-10-09T14:16:13.078Z,99.90
2022-10-09T14:20:14.759Z,99.90
2022-10-09T14:24:16.535Z,99.70
2022-10-09T14:28:18.261Z,99.60
2022-10-09T14:32:19.962Z,99.50
2022-10-09T14:36:21.617Z,99.90
2022-10-09T14:40:23.250Z,99.80
2022-10-09T14:44:25.570Z,99.90
2022-10-09T14:48:27.269Z,99.50
2022-10-09T14:52:30.359Z,99.50
2022-10-09T14:56:32.641Z,99.50
2022-10-09T15:00:34.318Z,99.30
2022-10-09T15:04:36.113Z,99.20
2022-10-09T15:08:41.378Z,99.50
2022-10-09T15:12:43.001Z,99.10
2022-10-09T15:16:44.899Z,99.10
2022-10-09T15:20:46.730Z,99.00
2022-10-09T15:24:49.030Z,99.20
2022-10-09T15:28:52.878Z,99.10
2022-10-09T15:32:55.593Z,99.00
2022-10-09T15:36:57.265Z,99.30
2022-10-09T15:40:58.967Z,99.10
2022-10-09T15:45:00.661Z,99.10
2022-10-09T15:49:02.337Z,99.00
2022-10-09T15:53:10.609Z,98.80
2022-10-09T15:57:12.475Z,98.70
2022-10-09T16:01:15.906Z,99.00
2022-10-09T16:05:17.639Z,99.00
2022-10-09T16:09:31.948Z,99.40
2022-10-09T16:13:37.916Z,99.60
2022-10-09T16:17:39.604Z,99.10
2022-10-09T16:21:41.276Z,99.20
2022-10-09T16:25:43.498Z,98.90
2022-10-09T16:29:45.168Z,98.80
2022-10-09T16:33:47.126Z,98.90
2022-10-09T16:37:51.134Z,98.90
2022-10-09T16:41:52.773Z,98.80
2022-10-09T16:45:55.218Z,99.00
2022-10-09T16:49:57.512Z,99.10
2022-10-09T16:54:01.453Z,99.10
2022-10-09T16:58:03.162Z,99.10
2022-10-09T17:02:05.004Z,99.00
2022-10-09T17:06:12.938Z,99.40
2022-10-09T17:10:14.610Z,99.30
2022-10-09T17:14:17.076Z,99.20
2022-10-09T17:18:18.855Z,99.00
2022-10-09T17:22:20.517Z,99.20
2022-10-09T17:26:24.002Z,99.40
2022-10-09T17:30:26.664Z,99.00
2022-10-09T17:34:28.381Z,99.10
2022-10-09T17:38:30.105Z,99.00
2022-10-09T17:42:31.765Z,98.80
2022-10-09T17:46:33.450Z,99.00
2022-10-09T17:50:36.180Z,98.80
2022-10-09T17:54:37.853Z,99.00
2022-10-09T17:58:39.662Z,98.90
2022-10-09T18:02:41.552Z,98.80
2022-10-09T18:06:43.677Z,98.80
2022-10-09T18:10:45.849Z,98.70
2022-10-09T18:14:47.657Z,98.80
2022-10-09T18:18:49.333Z,99.10
2022-10-09T18:22:51.045Z,99.10
2022-10-09T18:26:52.719Z,99.10
2022-10-09T18:30:55.945Z,99.00
2022-10-09T18:34:57.713Z,98.90
2022-10-09T18:39:06.998Z,99.00
2022-10-09T18:43:09.749Z,99.00
2022-10-09T18:47:17.099Z,99.10
2022-10-09T18:51:21.557Z,99.20
2022-10-09T18:55:23.366Z,99.20
2022-10-09T18:59:25.064Z,99.30
2022-10-09T19:03:26.739Z,99.50
2022-10-09T19:07:28.427Z,99.50
2022-10-09T19:11:31.812Z,99.60
2022-10-09T19:15:33.480Z,99.80
2022-10-09T19:19:35.171Z,99.90
2022-10-09T19:23:36.960Z,99.90
2022-10-09T19:27:38.863Z,99.90
2022-10-09T19:31:40.589Z,99.90
2022-10-09T19:35:56.272Z,99.90
2022-10-09T19:39:57.946Z,99.90
2022-10-09T19:44:00.447Z,99.90
2022-10-09T19:48:02.227Z,99.90
2022-10-09T19:52:03.995Z,99.90
2022-10-09T19:56:14.234Z,99.90
2022-10-09T20:00:16.052Z,99.80
2022-10-09T20:04:17.820Z,99.90
2022-10-09T20:08:19.502Z,99.90
2022-10-09T20:12:21.259Z,99.90
2022-10-09T20:16:24.001Z,99.90
2022-10-09T20:20:26.938Z,99.90
2022-10-09T20:24:29.219Z,99.90
2022-10-09T20:28:32.193Z,99.90
2022-10-09T20:32:36.763Z,99.90
2022-10-09T20:36:39.136Z,99.90
2022-10-09T20:40:40.854Z,99.90
2022-10-09T20:44:42.590Z,99.90
2022-10-09T20:48:44.873Z,99.90
2022-10-09T20:52:46.661Z,99.90
2022-10-09T20:56:49.599Z,99.90
2022-10-09T21:00:51.372Z,99.90
2022-10-09T21:04:53.137Z,99.90
2022-10-09T21:08:54.857Z,99.90
2022-10-09T21:12:56.515Z,99.90
2022-10-09T21:16:58.217Z,99.90
2022-10-09T21:21:04.284Z,99.90
2022-10-09T21:25:07.604Z,99.90
2022-10-09T21:29:11.403Z,99.90
2022-10-09T21:33:13.966Z,99.90
2022-10-09T21:37:21.335Z,99.90
2022-10-09T21:41:23.835Z,99.90
2022-10-09T21:45:25.528Z,99.90
2022-10-09T21:49:28.094Z,99.90
2022-10-09T21:53:29.762Z,99.90
2022-10-09T21:57:31.734Z,99.90
2022-10-09T22:01:33.643Z,99.90
2022-10-09T22:05:35.405Z,99.90
2022-10-09T22:09:37.185Z,99.90
2022-10-09T22:13:39.177Z,99.90
2022-10-09T22:17:49.996Z,99.90
2022-10-09T22:21:51.633Z,99.90
2022-10-09T22:25:59.062Z,99.90
2022-10-09T22:30:00.731Z,99.90
2022-10-09T22:34:02.551Z,99.90
2022-10-09T22:38:07.292Z,99.90
2022-10-09T22:42:08.965Z,99.90
2022-10-09T22:46:14.051Z,99.90
2022-10-09T22:50:15.756Z,99.90
2022-10-09T22:54:18.960Z,99.90
2022-10-09T22:58:20.629Z,99.90
2022-10-09T23:02:22.309Z,99.90
2022-10-09T23:06:24.400Z,99.90
2022-10-09T23:10:26.090Z,99.90
2022-10-09T23:14:27.924Z,99.90
2022-10-09T23:18:30.082Z,99.90
2022-10-09T23:22:31.739Z,99.90
2022-10-09T23:26:36.893Z,99.90
2022-10-09T23:30:38.620Z,99.90
2022-10-09T23:34:40.561Z,99.90
2022-10-09T23:38:42.617Z,99.90
2022-10-09T23:42:44.338Z,99.90
2022-10-09T23:46:46.005Z,99.90
2022-10-09T23:50:52.039Z,99.90
2022-10-09T23:54:53.723Z,99.90
2022-10-09T23:58:56.308Z,99.90
